Time;durP1;ratioP1;P1;durP2;ratioP2;P2;SDS_P1;SDS_P2;PMS_P1;PMS_P2;Temp;Humidity;BMP_temperature;BMP_pressure;BME280_temperature;BME280_humidity;BME280_pressure;Samples;Min_cycle;Max_cycle;Signal;HPM_P1;HPM_P2
2023/07/16 00:01:55;;;;;;;7.13;2.75;;;;;;;26.47;56.87;99826.03;5062181;28;20036;-85
2023/07/16 00:04:20;;;;;;;2.53;1.45;;;;;;;26.46;56.46;99816.16;5060451;28;20032;-86
2023/07/16 00:06:47;;;;;;;2.13;1.15;;;;;;;26.47;56.66;99817.91;5059618;28;20391;-84
2023/07/16 00:09:12;;;;;;;4.00;1.40;;;;;;;26.62;56.60;99840.19;5062113;28;20034;-85
2023/07/16 00:11:38;;;;;;;1.55;1.27;;;;;;;26.57;56.37;99834.25;5063068;28;20472;-87
2023/07/16 00:14:03;;;;;;;1.15;0.95;;;;;;;26.51;56.53;99823.91;5058531;28;20055;-85
2023/07/16 00:16:29;;;;;;;1.27;0.95;;;;;;;26.33;56.81;99810.88;5061882;28;21737;-87
2023/07/16 00:18:54;;;;;;;2.42;1.45;;;;;;;26.36;56.70;99820.63;5063976;28;20037;-85
2023/07/16 00:21:20;;;;;;;2.83;1.13;;;;;;;26.10;57.34;99842.44;5063013;28;20032;-84
2023/07/16 00:23:45;;;;;;;1.90;1.40;;;;;;;26.15;57.25;99818.63;5064939;28;20150;-84
2023/07/16 00:26:12;;;;;;;3.10;1.60;;;;;;;26.10;57.21;99828.91;5066594;28;20029;-85
2023/07/16 00:28:38;;;;;;;2.05;1.15;;;;;;;26.12;57.42;99829.69;5059246;28;20106;-85
2023/07/16 00:31:03;;;;;;;1.88;1.17;;;;;;;25.87;58.20;99826.13;5064659;28;20021;-85
2023/07/16 00:33:29;;;;;;;2.00;1.13;;;;;;;25.80;58.52;99814.06;5070689;28;20043;-85
2023/07/16 00:35:55;;;;;;;2.10;1.17;;;;;;;26.00;58.50;99849.53;5073353;28;20035;-83
2023/07/16 00:38:20;;;;;;;4.63;0.95;;;;;;;25.90;58.72;99844.81;5071063;28;20036;-84
2023/07/16 00:40:46;;;;;;;1.30;1.20;;;;;;;25.92;59.06;99850.94;5072603;28;20024;-83
2023/07/16 00:43:12;;;;;;;2.53;1.67;;;;;;;25.72;58.95;99800.28;5072168;28;20021;-84
2023/07/16 00:45:39;;;;;;;1.88;1.48;;;;;;;26.03;59.26;99854.72;5071080;28;20031;-83
2023/07/16 00:48:06;;;;;;;1.25;0.95;;;;;;;26.08;58.51;99850.66;5071949;28;20020;-85
2023/07/16 00:50:34;;;;;;;1.85;1.23;;;;;;;26.01;58.89;99853.94;5072028;28;20119;-84
2023/07/16 00:53:03;;;;;;;1.65;1.15;;;;;;;25.92;59.14;99821.22;5072555;28;20104;-85
2023/07/16 00:55:31;;;;;;;1.42;1.30;;;;;;;26.15;58.78;99847.47;5064733;28;20512;-87
2023/07/16 00:58:07;;;;;;;2.55;1.60;;;;;;;25.97;59.21;99818.16;5065003;28;20028;-84
2023/07/16 01:00:35;;;;;;;1.60;1.25;;;;;;;26.03;59.61;99843.91;5062975;28;20119;-85
2023/07/16 01:03:09;;;;;;;6.65;1.27;;;;;;;25.89;59.83;99817.91;5062552;28;20028;-86
2023/07/16 01:05:45;;;;;;;1.80;1.05;;;;;;;25.87;60.08;99817.16;5063800;28;20071;-86
2023/07/16 01:08:12;;;;;;;1.95;1.40;;;;;;;25.92;60.12;99812.28;5063839;28;20028;-84
2023/07/16 01:10:39;;;;;;;1.92;1.58;;;;;;;26.12;60.22;99851.31;5063350;28;20037;-86
2023/07/16 01:13:05;;;;;;;1.80;1.05;;;;;;;25.86;59.84;99823.56;5064540;28;20072;-84
2023/07/16 01:15:30;;;;;;;7.03;1.55;;;;;;;25.80;60.39;99814.06;5065536;28;20165;-83
2023/07/16 01:17:56;;;;;;;3.42;1.27;;;;;;;25.83;60.34;99821.94;5062103;28;20388;-84
2023/07/16 01:20:21;;;;;;;2.67;1.92;;;;;;;25.81;61.14;99834.72;5061664;28;20028;-87
2023/07/16 01:22:59;;;;;;;9.05;1.58;;;;;;;25.78;61.56;99848.44;5049443;28;20039;-85
2023/07/16 01:26:03;;;;;;;3.70;1.85;;;;;;;25.90;61.08;99855.63;5067855;28;20024;-84
2023/07/16 01:28:38;;;;;;;4.85;2.72;;;;;;;25.88;61.02;99862.97;4997602;28;20053;-85
2023/07/16 01:31:05;;;;;;;2.78;1.40;;;;;;;25.77;60.72;99833.22;5000220;28;20044;-84
2023/07/16 01:33:33;;;;;;;1.50;1.25;;;;;;;25.78;60.64;99851.16;5001710;28;20038;-85
2023/07/16 01:35:59;;;;;;;1.75;1.15;;;;;;;25.33;61.49;99813.13;5000994;28;20057;-86
2023/07/16 01:38:25;;;;;;;2.30;1.25;;;;;;;25.48;61.36;99822.78;4983656;28;20424;-85
2023/07/16 01:40:50;;;;;;;4.07;1.27;;;;;;;25.34;62.15;99825.66;5002160;28;20050;-85
2023/07/16 01:43:16;;;;;;;8.10;1.83;;;;;;;25.40;62.37;99840.53;5004047;28;20120;-84
2023/07/16 01:45:42;;;;;;;2.13;1.20;;;;;;;25.35;62.90;99838.19;5002382;28;20045;-83
2023/07/16 01:48:30;;;;;;;2.15;1.17;;;;;;;25.52;62.48;99872.88;5000837;28;20034;-85
2023/07/16 01:50:56;;;;;;;3.00;2.22;;;;;;;25.41;62.85;99859.31;4922980;29;20549;-85
2023/07/16 01:53:22;;;;;;;2.30;1.52;;;;;;;25.32;62.76;99850.06;4922314;29;20052;-85
2023/07/16 01:55:47;;;;;;;2.45;2.13;;;;;;;25.24;62.89;99832.66;4924508;29;21900;-86
2023/07/16 01:58:13;;;;;;;4.75;2.35;;;;;;;25.16;63.37;99844.03;4923963;29;20039;-88
2023/07/16 02:00:39;;;;;;;3.00;2.38;;;;;;;24.87;63.43;99808.38;4925164;29;20557;-85
2023/07/16 02:03:05;;;;;;;3.92;2.35;;;;;;;25.08;64.15;99851.84;4926663;29;21003;-86
2023/07/16 02:05:30;;;;;;;2.17;1.98;;;;;;;25.35;63.52;99857.09;4941158;28;20069;-84
2023/07/16 02:07:56;;;;;;;2.92;1.25;;;;;;;25.28;63.62;99850.38;4944969;28;20041;-84
2023/07/16 02:10:21;;;;;;;1.92;1.30;;;;;;;25.12;63.74;99824.50;4967291;28;20038;-85
2023/07/16 02:12:47;;;;;;;2.45;1.75;;;;;;;25.06;64.28;99827.66;4958162;28;20441;-85
2023/07/16 02:15:12;;;;;;;2.30;1.85;;;;;;;25.00;64.22;99817.31;4946705;28;20416;-85
2023/07/16 02:17:38;;;;;;;3.53;2.05;;;;;;;25.08;64.06;99822.16;4962785;28;20039;-86
2023/07/16 02:20:07;;;;;;;3.30;2.50;;;;;;;25.30;63.85;99848.44;4964678;28;20042;-85
2023/07/16 02:22:35;;;;;;;2.38;2.03;;;;;;;25.29;63.90;99849.44;4968590;28;20117;-86
2023/07/16 02:25:01;;;;;;;6.03;2.35;;;;;;;25.29;63.88;99842.19;4969989;28;20122;-86
2023/07/16 02:27:27;;;;;;;3.08;1.40;;;;;;;25.24;63.98;99838.94;4998487;28;20425;-89
2023/07/16 02:29:52;;;;;;;3.60;1.85;;;;;;;25.10;63.86;99814.78;5070532;28;20483;-84
2023/07/16 02:32:18;;;;;;;2.60;2.10;;;;;;;25.38;63.77;99878.44;5070249;28;20050;-85
2023/07/16 02:34:43;;;;;;;2.40;1.77;;;;;;;25.20;64.03;99845.53;5070754;28;20564;-85
2023/07/16 02:37:08;;;;;;;3.20;2.05;;;;;;;25.37;64.04;99872.16;5070237;28;20060;-85
2023/07/16 02:39:34;;;;;;;2.63;1.85;;;;;;;25.24;64.49;99867.75;5070568;28;20430;-86
2023/07/16 02:42:01;;;;;;;4.60;2.50;;;;;;;25.25;64.78;99883.84;5070955;28;20108;-85
2023/07/16 02:44:26;;;;;;;4.00;2.17;;;;;;;25.23;64.96;99888.50;5070411;28;20013;-83
2023/07/16 02:46:52;;;;;;;3.45;2.00;;;;;;;25.18;64.88;99861.84;5070478;28;20032;-84
2023/07/16 02:49:17;;;;;;;2.47;1.38;;;;;;;24.90;65.15;99827.03;5070361;28;20021;-84
2023/07/16 02:51:43;;;;;;;3.20;1.48;;;;;;;25.19;64.95;99884.28;5070910;28;20064;-84
2023/07/16 02:54:08;;;;;;;15.15;2.22;;;;;;;25.12;65.69;99894.69;5069785;28;20479;-84
2023/07/16 02:56:34;;;;;;;4.72;1.83;;;;;;;25.09;64.93;99870.59;5070473;28;20090;-84
2023/07/16 02:59:00;;;;;;;4.18;1.85;;;;;;;25.07;65.09;99867.19;5070375;28;20037;-84
2023/07/16 03:01:25;;;;;;;2.47;2.05;;;;;;;25.08;65.04;99881.53;5070430;28;20510;-85
2023/07/16 03:03:51;;;;;;;3.50;1.88;;;;;;;24.83;65.50;99854.47;5069717;28;20119;-85
2023/07/16 03:06:16;;;;;;;2.55;1.83;;;;;;;24.87;65.80;99865.03;5070176;28;20032;-84
2023/07/16 03:08:42;;;;;;;2.20;1.80;;;;;;;24.77;66.49;99872.94;5070556;28;20024;-84
2023/07/16 03:11:08;;;;;;;3.53;1.90;;;;;;;24.59;66.45;99840.91;5052172;28;20517;-85
2023/07/16 03:13:33;;;;;;;2.95;1.35;;;;;;;24.76;66.73;99864.00;5070726;28;20351;-85
2023/07/16 03:15:59;;;;;;;1.92;1.60;;;;;;;24.57;67.29;99845.53;5067518;28;20414;-84
2023/07/16 03:18:29;;;;;;;3.70;2.55;;;;;;;24.47;67.57;99850.69;5067709;28;20126;-84
2023/07/16 03:20:54;;;;;;;2.75;2.10;;;;;;;24.54;67.71;99861.91;5069545;28;20036;-85
2023/07/16 03:23:20;;;;;;;4.53;1.90;;;;;;;24.47;68.28;99863.31;5070059;28;20021;-84
2023/07/16 03:25:45;;;;;;;2.70;2.08;;;;;;;24.36;68.36;99839.81;5068867;28;20035;-85
2023/07/16 03:28:11;;;;;;;4.10;1.83;;;;;;;24.73;67.83;99898.38;5051902;28;20124;-86
2023/07/16 03:30:37;;;;;;;7.60;2.08;;;;;;;24.62;68.07;99873.06;5070051;28;20035;-86
2023/07/16 03:33:03;;;;;;;2.22;1.83;;;;;;;24.48;68.34;99865.03;5070164;28;20028;-85
2023/07/16 03:35:30;;;;;;;2.53;1.30;;;;;;;24.37;68.44;99865.78;5070016;28;20036;-85
2023/07/16 03:37:55;;;;;;;3.15;1.65;;;;;;;24.42;68.33;99854.69;5069232;28;20043;-85
2023/07/16 03:40:25;;;;;;;2.13;1.55;;;;;;;24.52;68.45;99855.75;5069994;28;20111;-85
2023/07/16 03:42:50;;;;;;;2.90;1.77;;;;;;;24.79;67.74;99874.56;5069827;28;20068;-85
2023/07/16 03:45:16;;;;;;;3.13;2.17;;;;;;;24.89;67.90;99908.97;5052011;28;20087;-86
2023/07/16 03:47:42;;;;;;;4.25;2.47;;;;;;;24.79;67.63;99885.34;5069921;28;20466;-86
2023/07/16 03:50:08;;;;;;;3.38;2.58;;;;;;;24.92;68.03;99923.09;5069770;28;20025;-85
2023/07/16 03:52:33;;;;;;;2.15;1.42;;;;;;;25.00;66.99;99888.31;5069971;28;20032;-86
2023/07/16 03:55:00;;;;;;;1.52;1.13;;;;;;;25.03;67.14;99873.75;5070165;28;20082;-86
2023/07/16 03:57:27;;;;;;;2.90;2.13;;;;;;;25.22;66.34;99891.31;5070279;28;20097;-87
2023/07/16 03:59:53;;;;;;;2.63;1.95;;;;;;;25.31;66.32;99888.81;5068840;28;20082;-86
2023/07/16 04:02:18;;;;;;;3.60;1.50;;;;;;;25.50;65.95;99914.47;5060466;28;20025;-85
2023/07/16 04:04:44;;;;;;;1.73;1.40;;;;;;;25.36;65.96;99900.16;5072300;28;20513;-85
2023/07/16 04:07:10;;;;;;;9.93;1.95;;;;;;;25.34;65.69;99896.69;5073992;28;21123;-85
2023/07/16 04:09:40;;;;;;;4.72;2.00;;;;;;;25.41;65.39;99883.63;5072621;28;20025;-85
2023/07/16 04:12:06;;;;;;;3.10;1.33;;;;;;;25.41;65.74;99883.63;5074234;28;20440;-86
2023/07/16 04:14:32;;;;;;;2.42;1.17;;;;;;;25.78;65.15;99916.00;5073436;28;20502;-85
2023/07/16 04:16:58;;;;;;;3.45;2.28;;;;;;;25.74;64.28;99899.13;5073555;28;20506;-85
2023/07/16 04:19:23;;;;;;;1.98;1.38;;;;;;;25.80;64.17;99907.78;5073205;28;20028;-85
2023/07/16 04:21:49;;;;;;;8.13;2.65;;;;;;;25.61;64.01;99871.34;5072768;28;20122;-85
2023/07/16 04:24:14;;;;;;;1.35;1.05;;;;;;;25.94;63.52;99898.63;5072921;28;20411;-86
2023/07/16 04:26:40;;;;;;;1.33;1.23;;;;;;;25.74;63.98;99901.84;5073680;28;20513;-86
2023/07/16 04:29:05;;;;;;;2.45;1.25;;;;;;;25.63;64.18;99863.97;5073065;28;20115;-86
2023/07/16 04:31:31;;;;;;;4.25;2.28;;;;;;;25.76;64.59;99895.47;5072540;28;20521;-86
2023/07/16 04:33:56;;;;;;;2.05;1.38;;;;;;;25.75;64.20;99918.91;5073260;28;20115;-84
2023/07/16 04:36:22;;;;;;;3.22;1.95;;;;;;;25.90;64.09;99938.50;5073332;28;20029;-85
2023/07/16 04:38:48;;;;;;;2.55;1.63;;;;;;;25.79;63.67;99908.75;5073330;28;20487;-84
2023/07/16 04:41:16;;;;;;;7.25;2.53;;;;;;;25.72;63.52;99887.59;5073250;28;20029;-85
2023/07/16 04:43:41;;;;;;;3.45;1.67;;;;;;;25.95;63.57;99944.44;5071543;28;20025;-84
2023/07/16 04:46:06;;;;;;;2.70;1.55;;;;;;;25.53;64.01;99880.00;5071537;28;20039;-86
2023/07/16 04:48:32;;;;;;;1.77;1.58;;;;;;;25.80;63.52;99916.72;5073240;28;20073;-85
2023/07/16 04:50:57;;;;;;;1.85;1.25;;;;;;;25.79;63.66;99906.03;5072517;28;20033;-85
2023/07/16 04:53:23;;;;;;;3.50;2.70;;;;;;;26.02;62.94;99916.00;5071968;28;20395;-85
2023/07/16 04:55:49;;;;;;;2.40;1.95;;;;;;;25.68;63.08;99879.84;5072382;28;20024;-84
2023/07/16 04:58:15;;;;;;;3.08;1.45;;;;;;;26.20;62.19;99946.16;5071078;28;20035;-84
2023/07/16 05:00:41;;;;;;;2.97;1.83;;;;;;;26.31;61.95;99930.97;5072620;28;20361;-85
2023/07/16 05:03:06;;;;;;;1.35;1.20;;;;;;;26.44;61.54;99934.44;5072566;28;20517;-83
2023/07/16 05:05:32;;;;;;;9.10;2.70;;;;;;;26.42;60.99;99912.06;5072061;28;20070;-83
2023/07/16 05:07:57;;;;;;;3.22;1.75;;;;;;;26.72;60.65;99943.13;5072118;28;20043;-84
2023/07/16 05:10:24;;;;;;;2.53;2.05;;;;;;;26.74;60.40;99911.38;5072651;28;20402;-85
2023/07/16 05:12:50;;;;;;;7.32;1.75;;;;;;;27.09;59.83;99919.41;5054471;28;20576;-85
2023/07/16 05:15:15;;;;;;;4.13;2.45;;;;;;;27.05;59.28;99923.34;5072558;28;20083;-84
2023/07/16 05:17:44;;;;;;;5.55;2.60;;;;;;;27.03;58.60;99909.06;5072240;28;20028;-88
2023/07/16 05:20:10;;;;;;;7.20;2.42;;;;;;;27.33;58.30;99927.41;5071402;28;20032;-84
2023/07/16 05:22:35;;;;;;;3.95;2.60;;;;;;;27.24;57.13;99908.31;5071688;28;20037;-84
2023/07/16 05:25:02;;;;;;;6.18;1.60;;;;;;;27.66;56.90;99938.31;5066288;28;20033;-86
2023/07/16 05:27:28;;;;;;;2.60;2.13;;;;;;;27.69;56.99;99951.59;5053404;28;20040;-85
2023/07/16 05:29:54;;;;;;;2.88;1.90;;;;;;;27.68;56.64;99950.75;5069738;28;20036;-84
2023/07/16 05:32:20;;;;;;;4.65;2.30;;;;;;;27.75;56.37;99937.56;5046724;28;20045;-86
2023/07/16 05:34:45;;;;;;;2.88;2.00;;;;;;;27.77;54.68;99946.41;5069660;28;20433;-85
2023/07/16 05:37:11;;;;;;;3.22;2.10;;;;;;;27.67;55.13;99951.75;5071996;28;20037;-84
2023/07/16 05:39:37;;;;;;;3.60;2.35;;;;;;;27.81;54.61;99949.75;5071049;28;20033;-84
2023/07/16 05:42:03;;;;;;;4.88;1.90;;;;;;;28.15;54.30;99960.50;5071587;28;20517;-83
2023/07/16 05:44:29;;;;;;;3.67;1.90;;;;;;;28.22;53.84;99948.13;5050226;28;20421;-85
2023/07/16 05:46:54;;;;;;;3.40;1.63;;;;;;;28.19;52.37;99924.84;5067470;28;20028;-84
2023/07/16 05:49:20;;;;;;;3.00;1.98;;;;;;;28.80;51.55;99953.13;5064115;28;20044;-83
2023/07/16 05:51:48;;;;;;;4.00;2.45;;;;;;;28.70;50.88;99933.19;5068090;28;20054;-84
2023/07/16 05:54:14;;;;;;;2.30;1.80;;;;;;;28.78;51.06;99925.28;5071461;28;20042;-84
2023/07/16 05:56:39;;;;;;;3.30;1.63;;;;;;;29.18;50.58;99972.44;5071372;28;20545;-84
2023/07/16 05:59:04;;;;;;;3.35;1.75;;;;;;;29.13;49.62;99961.16;5071677;28;20060;-84
2023/07/16 06:01:30;;;;;;;3.60;2.63;;;;;;;29.42;48.41;99975.72;5067492;28;20025;-83
2023/07/16 06:03:57;;;;;;;2.25;1.88;;;;;;;29.74;47.93;99981.97;5051378;28;20112;-84
2023/07/16 06:06:24;;;;;;;2.45;1.45;;;;;;;29.70;47.52;99942.47;5037299;28;20115;-84
2023/07/16 06:08:49;;;;;;;3.83;2.65;;;;;;;29.82;47.83;99941.38;5064666;28;20024;-84
2023/07/16 06:11:15;;;;;;;4.53;2.90;;;;;;;29.87;47.55;99908.34;5062479;28;20055;-84
2023/07/16 06:13:40;;;;;;;4.00;2.40;;;;;;;30.09;47.81;99948.84;5069199;28;20121;-84
2023/07/16 06:16:06;;;;;;;3.85;2.17;;;;;;;30.26;46.04;99952.72;5071198;28;20076;-84
2023/07/16 06:18:31;;;;;;;5.78;2.55;;;;;;;30.27;46.16;99938.09;5066418;28;20475;-83
2023/07/16 06:20:57;;;;;;;3.25;2.08;;;;;;;30.73;46.27;99953.84;5070444;28;20498;-83
2023/07/16 06:23:22;;;;;;;4.05;2.35;;;;;;;30.11;45.44;99948.72;5062511;28;20043;-83
2023/07/16 06:25:48;;;;;;;2.10;1.52;;;;;;;30.69;44.52;99966.84;5058183;28;20035;-84
2023/07/16 06:28:14;;;;;;;5.13;2.30;;;;;;;30.74;44.51;99931.91;5058877;28;20111;-87
2023/07/16 06:30:40;;;;;;;2.95;1.83;;;;;;;31.02;44.12;99970.13;5068022;28;20086;-85
2023/07/16 06:33:06;;;;;;;2.45;1.60;;;;;;;31.13;42.71;99931.78;5070255;28;20024;-84
2023/07/16 06:35:32;;;;;;;3.00;1.70;;;;;;;30.96;42.27;99930.69;5069339;28;20460;-82
2023/07/16 06:37:57;;;;;;;2.67;1.48;;;;;;;30.74;42.38;99942.78;5070660;28;20560;-83
2023/07/16 06:40:24;;;;;;;3.85;2.08;;;;;;;30.04;44.76;99932.09;5065627;28;20123;-83
2023/07/16 06:42:49;;;;;;;1.75;1.55;;;;;;;30.53;45.29;99938.38;5069987;28;20021;-83
2023/07/16 06:45:16;;;;;;;4.45;2.15;;;;;;;31.16;44.14;99942.38;5068232;28;20036;-88
2023/07/16 06:47:42;;;;;;;2.30;1.65;;;;;;;31.10;44.35;99932.09;5069911;28;20120;-83
2023/07/16 06:50:08;;;;;;;1.73;1.42;;;;;;;30.83;44.39;99906.50;5069798;28;20107;-83
2023/07/16 06:52:33;;;;;;;3.53;2.13;;;;;;;31.10;45.03;99931.25;5070539;28;20033;-83
2023/07/16 06:54:58;;;;;;;2.45;2.13;;;;;;;31.79;43.59;99918.94;5065577;28;20039;-84
2023/07/16 06:57:24;;;;;;;5.00;3.00;;;;;;;31.87;43.25;99919.03;5050635;28;20510;-84
2023/07/16 06:59:50;;;;;;;4.47;3.10;;;;;;;32.18;42.35;99925.97;5050526;28;20103;-84
2023/07/16 07:02:16;;;;;;;3.53;1.85;;;;;;;32.45;41.82;99908.63;5050298;28;20064;-83
2023/07/16 07:04:42;;;;;;;2.70;2.00;;;;;;;32.58;40.50;99905.47;5050204;28;20475;-84
2023/07/16 07:07:08;;;;;;;5.38;3.05;;;;;;;32.78;40.83;99914.31;5061801;28;20020;-84
2023/07/16 07:09:34;;;;;;;4.47;2.28;;;;;;;32.71;41.17;99929.66;5070029;28;20513;-84
2023/07/16 07:11:59;;;;;;;16.00;1.77;;;;;;;32.72;40.99;99925.91;5070750;28;20025;-83
2023/07/16 07:14:25;;;;;;;7.40;2.80;;;;;;;32.61;40.17;99908.75;5070338;28;20063;-84
2023/07/16 07:16:51;;;;;;;2.35;1.73;;;;;;;33.01;40.04;99931.00;5069760;28;20051;-84
2023/07/16 07:19:16;;;;;;;6.68;2.25;;;;;;;32.99;39.99;99931.19;5070283;28;20056;-83
2023/07/16 07:21:42;;;;;;;2.13;1.38;;;;;;;33.26;39.49;99918.38;5069896;28;20509;-84
2023/07/16 07:24:07;;;;;;;1.02;0.88;;;;;;;32.75;40.38;99915.53;5068186;28;20076;-84
2023/07/16 07:26:33;;;;;;;6.68;1.88;;;;;;;32.86;40.40;99927.16;5069913;28;20111;-83
2023/07/16 07:28:58;;;;;;;3.90;1.58;;;;;;;33.00;39.01;99921.97;5070038;28;20025;-83
2023/07/16 07:31:24;;;;;;;2.80;1.77;;;;;;;33.16;38.23;99934.84;5069126;28;20060;-83
2023/07/16 07:33:49;;;;;;;2.92;1.45;;;;;;;32.97;38.85;99896.88;5069090;28;20424;-85
2023/07/16 07:36:15;;;;;;;1.17;1.05;;;;;;;33.26;38.68;99881.97;5070227;28;20033;-84
2023/07/16 07:38:40;;;;;;;2.83;1.73;;;;;;;33.92;38.29;99923.19;5069364;28;20516;-84
2023/07/16 07:41:06;;;;;;;8.10;1.83;;;;;;;33.93;37.44;99909.31;5068435;28;20040;-84
2023/07/16 07:43:31;;;;;;;2.75;1.95;;;;;;;33.88;38.29;99920.78;5069628;28;20115;-85
2023/07/16 07:45:57;;;;;;;2.55;1.58;;;;;;;33.88;38.77;99919.94;5069922;28;20035;-85
2023/07/16 07:48:23;;;;;;;6.68;2.20;;;;;;;34.13;38.31;99907.13;5068494;28;20046;-86
2023/07/16 07:50:48;;;;;;;2.30;1.50;;;;;;;34.02;38.15;99900.09;5069939;28;20028;-83
2023/07/16 07:53:18;;;;;;;6.25;3.33;;;;;;;34.01;38.58;99906.59;5069680;28;20474;-83
2023/07/16 07:55:44;;;;;;;8.02;5.43;;;;;;;33.56;38.09;99888.72;5069833;28;20036;-82
2023/07/16 07:58:10;;;;;;;12.05;8.25;;;;;;;34.25;37.88;99913.16;5070128;28;20418;-84
2023/07/16 08:00:35;;;;;;;24.73;14.77;;;;;;;34.25;37.87;99896.72;5070058;28;20544;-82
2023/07/16 08:03:01;;;;;;;49.95;31.40;;;;;;;34.74;37.72;99914.94;5067891;28;20020;-84
2023/07/16 08:05:27;;;;;;;120.63;107.78;;;;;;;34.40;37.95;99900.47;5068561;28;20028;-83
2023/07/16 08:07:53;;;;;;;39.15;21.30;;;;;;;34.36;37.85;99871.72;5068497;28;20024;-83
2023/07/16 08:10:19;;;;;;;169.10;153.25;;;;;;;34.91;38.82;99910.31;5069021;28;20424;-81
2023/07/16 08:12:44;;;;;;;937.90;695.38;;;;;;;35.04;40.73;99860.44;5068506;28;20039;-84
2023/07/16 08:15:14;;;;;;;816.63;431.45;;;;;;;35.41;37.07;99908.28;5068474;28;20024;-83
2023/07/16 08:17:41;;;;;;;25.02;18.73;;;;;;;34.74;37.19;99895.78;5068830;28;20032;-84
2023/07/16 08:20:07;;;;;;;193.18;115.95;;;;;;;34.64;38.24;99906.09;5068177;28;20055;-82
2023/07/16 08:22:33;;;;;;;28.15;21.23;;;;;;;34.46;36.96;99889.84;5068929;28;20036;-84
2023/07/16 08:24:58;;;;;;;289.88;154.45;;;;;;;34.91;37.08;99896.59;5069133;28;20535;-83
2023/07/16 08:27:24;;;;;;;79.30;39.20;;;;;;;35.08;35.02;99867.25;5068669;28;20034;-84
2023/07/16 08:29:49;;;;;;;134.73;59.85;;;;;;;35.01;36.98;99883.56;5068562;28;20028;-82
2023/07/16 08:32:15;;;;;;;413.77;250.00;;;;;;;35.41;35.68;99889.06;5068992;28;20025;-84
2023/07/16 08:34:42;;;;;;;253.85;138.18;;;;;;;35.49;35.58;99902.72;5068600;28;20053;-85
2023/07/16 08:37:07;;;;;;;464.45;241.15;;;;;;;35.19;35.28;99863.25;5068704;28;20048;-82
2023/07/16 08:39:33;;;;;;;937.75;497.17;;;;;;;35.92;36.74;99910.56;5069385;28;20025;-83
2023/07/16 08:41:59;;;;;;;1259.70;627.40;;;;;;;36.37;34.36;99897.84;5068314;28;20039;-83
2023/07/16 08:44:26;;;;;;;107.68;73.07;;;;;;;36.26;34.63;99873.59;5072623;28;20032;-82
2023/07/16 08:46:52;;;;;;;713.78;635.80;;;;;;;36.02;34.49;99864.47;5072622;28;20028;-84
2023/07/16 08:49:19;;;;;;;68.75;54.40;;;;;;;35.94;34.67;99892.84;5071835;28;20027;-84
2023/07/16 08:51:48;;;;;;;4.18;2.58;;;;;;;36.28;35.07;99887.97;5071775;28;20116;-84
2023/07/16 08:54:17;;;;;;;3.35;2.00;;;;;;;35.78;34.08;99874.63;5071959;28;20103;-86
2023/07/16 08:56:47;;;;;;;3.08;2.25;;;;;;;36.01;33.84;99896.56;5072162;28;20028;-84
2023/07/16 08:59:15;;;;;;;3.85;2.08;;;;;;;35.79;35.58;99900.16;5071938;28;20107;-85
2023/07/16 09:01:40;;;;;;;3.53;1.95;;;;;;;35.56;34.91;99869.94;5072158;28;20043;-88
2023/07/16 09:04:06;;;;;;;7.15;4.88;;;;;;;35.71;35.38;99887.31;5071856;28;20028;-83
2023/07/16 09:06:31;;;;;;;3.70;2.72;;;;;;;35.89;34.58;99899.94;5071855;28;20037;-84
2023/07/16 09:08:57;;;;;;;4.40;1.95;;;;;;;36.05;34.67;99866.00;5071395;28;20029;-86
2023/07/16 09:11:23;;;;;;;7.55;2.03;;;;;;;36.09;35.54;99854.47;5072712;28;20085;-86
2023/07/16 09:13:49;;;;;;;3.15;1.83;;;;;;;35.74;34.79;99865.00;5072224;28;20049;-91
2023/07/16 09:16:18;;;;;;;3.30;1.63;;;;;;;35.99;34.43;99859.34;5072428;28;20483;-86
2023/07/16 09:18:43;;;;;;;4.15;1.63;;;;;;;35.89;35.61;99895.28;5063312;28;20028;-84
2023/07/16 09:21:10;;;;;;;2.55;1.65;;;;;;;35.83;35.17;99888.63;5062736;28;20475;-89
2023/07/16 09:23:36;;;;;;;3.80;1.77;;;;;;;36.20;35.55;99867.75;5068238;28;20444;-86
2023/07/16 09:26:03;;;;;;;2.08;1.33;;;;;;;36.16;33.70;99879.28;5064934;28;20032;-88
2023/07/16 09:28:30;;;;;;;3.45;1.90;;;;;;;35.91;34.33;99875.91;5066865;28;20056;-87
2023/07/16 09:31:03;;;;;;;2.33;1.60;;;;;;;36.19;33.66;99866.06;5066946;28;20443;-87
2023/07/16 09:33:31;;;;;;;2.80;1.63;;;;;;;36.12;34.03;99820.31;5068919;28;20044;-89
2023/07/16 09:35:56;;;;;;;2.78;2.00;;;;;;;36.38;35.29;99869.34;5066536;28;20091;-88
2023/07/16 09:38:24;;;;;;;2.63;1.95;;;;;;;36.27;34.78;99853.31;5063349;28;20510;-90
2023/07/16 09:40:50;;;;;;;2.47;1.67;;;;;;;36.03;34.67;99841.50;5063490;28;20082;-85
2023/07/16 09:43:15;;;;;;;3.70;2.30;;;;;;;36.12;35.03;99828.56;5065539;28;20032;-84
2023/07/16 09:45:42;;;;;;;4.55;2.22;;;;;;;36.32;34.64;99861.84;5063321;28;20021;-91
2023/07/16 09:48:08;;;;;;;1.88;1.50;;;;;;;35.91;35.41;99868.50;5063927;28;20024;-87
2023/07/16 09:50:35;;;;;;;3.30;1.50;;;;;;;35.27;35.64;99858.63;5066225;28;20032;-86
2023/07/16 09:53:03;;;;;;;1.95;1.73;;;;;;;35.63;34.94;99859.97;5067306;28;20090;-90
2023/07/16 09:55:34;;;;;;;3.60;1.50;;;;;;;36.05;35.43;99857.78;5063001;28;20494;-88
2023/07/16 09:58:01;;;;;;;2.22;1.83;;;;;;;36.10;34.92;99830.63;5052294;28;20514;-88
2023/07/16 10:00:28;;;;;;;2.35;1.63;;;;;;;36.18;35.03;99812.19;5063660;28;20024;-91
2023/07/16 10:02:54;;;;;;;2.55;1.65;;;;;;;36.21;34.83;99800.81;5061456;28;20171;-89
2023/07/16 10:05:25;;;;;;;2.50;1.50;;;;;;;36.20;34.90;99812.84;5065298;28;20128;-91
2023/07/16 10:07:58;;;;;;;2.65;2.05;;;;;;;36.12;34.98;99836.78;5063982;28;20032;-89
2023/07/16 10:10:39;;;;;;;3.17;2.20;;;;;;;36.25;34.79;99786.72;5067947;28;20108;-92
2023/07/16 10:13:06;;;;;;;3.03;2.03;;;;;;;36.61;34.28;99802.47;5063502;28;20040;-89
2023/07/16 10:15:32;;;;;;;5.25;2.70;;;;;;;36.68;34.53;99767.72;5062876;28;20032;-90
2023/07/16 10:17:57;;;;;;;3.28;1.95;;;;;;;36.56;33.66;99787.44;5064391;28;20028;-91
2023/07/16 10:20:34;;;;;;;3.03;2.03;;;;;;;36.51;34.88;99776.16;5065806;28;20513;-88
2023/07/16 10:23:13;;;;;;;4.35;1.90;;;;;;;36.68;36.09;99779.53;5064806;28;20024;-89
2023/07/16 10:25:39;;;;;;;3.35;2.03;;;;;;;36.77;33.79;99757.50;5065875;28;20132;-90
2023/07/16 10:28:04;;;;;;;3.08;1.90;;;;;;;36.67;33.75;99782.47;5065608;28;20518;-89
2023/07/16 10:30:30;;;;;;;2.97;1.98;;;;;;;37.01;34.38;99828.59;5064734;28;20037;-91
2023/07/16 10:32:56;;;;;;;3.67;2.05;;;;;;;36.43;33.97;99765.28;5066991;28;20020;-92
2023/07/16 10:35:22;;;;;;;3.80;2.50;;;;;;;36.23;34.47;99780.59;5064483;28;20036;-92
2023/07/16 10:37:48;;;;;;;5.28;1.90;;;;;;;35.73;34.90;99759.06;5062764;28;20039;-90
2023/07/16 10:40:14;;;;;;;3.20;2.10;;;;;;;36.31;35.80;99766.78;5064994;28;20418;-92
2023/07/16 10:42:46;;;;;;;4.90;2.17;;;;;;;36.83;34.55;99804.31;5066150;28;20076;-91
2023/07/16 10:45:12;;;;;;;3.75;2.35;;;;;;;36.41;34.33;99728.03;5065995;28;20020;-90
2023/07/16 10:47:40;;;;;;;12.40;3.72;;;;;;;36.70;35.22;99782.97;5063250;28;20419;-89
2023/07/16 10:50:34;;;;;;;4.97;2.58;;;;;;;36.80;34.02;99751.63;5069020;28;20020;-90
2023/07/16 10:53:01;;;;;;;4.60;2.70;;;;;;;36.31;34.63;99731.09;5021591;28;20072;-90
2023/07/16 10:55:28;;;;;;;6.43;3.35;;;;;;;36.67;35.55;99774.25;5029380;28;20539;-91
2023/07/16 10:57:56;;;;;;;3.90;2.30;;;;;;;36.56;34.39;99746.25;5028248;28;20076;-91
2023/07/16 11:00:22;;;;;;;14.80;3.33;;;;;;;36.74;34.66;99764.22;5022434;28;20408;-88
2023/07/16 11:02:49;;;;;;;3.10;2.33;;;;;;;36.92;34.41;99748.19;5008669;28;20098;-93
2023/07/16 11:05:15;;;;;;;3.90;2.55;;;;;;;36.70;33.73;99710.66;4992188;28;20034;-93
2023/07/16 11:07:48;;;;;;;7.07;2.47;;;;;;;37.23;33.65;99703.06;5008198;28;20487;-92
2023/07/16 11:10:17;;;;;;;4.53;2.38;;;;;;;37.21;34.17;99709.78;5008069;28;20042;-90
2023/07/16 11:12:43;;;;;;;8.55;2.53;;;;;;;37.54;32.66;99721.13;4991736;28;20088;-90
2023/07/16 11:15:10;;;;;;;5.25;2.63;;;;;;;37.58;32.98;99729.81;5008679;28;20033;-93
2023/07/16 11:17:39;;;;;;;4.72;2.42;;;;;;;37.77;33.54;99703.53;4991791;28;20038;-92
2023/07/16 11:20:07;;;;;;;9.50;2.65;;;;;;;37.78;33.99;99739.13;4992154;28;20103;-91
2023/07/16 11:22:36;;;;;;;9.85;3.00;;;;;;;37.90;33.84;99706.41;5007979;28;20133;-90
2023/07/16 11:25:02;;;;;;;3.80;2.53;;;;;;;37.92;33.89;99720.81;5007865;28;20033;-90
2023/07/16 11:27:32;;;;;;;9.05;2.83;;;;;;;38.20;32.58;99747.50;4992138;28;20512;-92
2023/07/16 11:30:00;;;;;;;3.90;2.45;;;;;;;38.19;33.03;99709.16;5044164;28;20117;-91